Terminal Aerodrome Forecast
Issued by NWS

Home | Current Version | Previous Version | Text Only | Print | Product List | Glossary On
Versions: 1 2 3 4 5 6 7 8 9 10 11 12 13 14 15 16 17 18 19 20
000
FTUS46 KSGX 051120
TAFSNA
TAF
KSNA 051120Z 0512/0612 VRB04KT P6SM SCT022
      TEMPO 0512/0515 BKN022
     FM052000 21011KT P6SM SKC
     FM060300 VRB05KT P6SM SCT018
     FM060900 VRB03KT P6SM BKN017=

USA.gov is the U.S. government's official web portal to all federal, state and local government web resources and services.